Duluth, Minnesota
Current Conditions -  °F | °C
As of 3:15 AM on Sunday 23 Nov 2014 (Local Time) from KDLH Reporting Station
Drizzle Drizzle  
Wind Chill: 26°   Ceiling: 200
Heat Index: 35°   Visibility: 0.25mi
Dew Point: 34°   Wind: 13mph
Humidity: 96%   Direction: 110°ESE
Pressure: 29.42"   Gusts: NA
Location:  46.79°N, 92.09°W
Report Text: KDLH 230915Z 11011KT 1/4SM R09/1600V2200FT -DZ FG VV002 02/01 A2942 RMK AO2 P0001 T00170011
Loading
Personal Weather Stations






























Interactive Weather Map New forecast layout! Learn more

10-Day Weather Forecast

Advertisements
Track Severe Weather on mobile